Flight Track Log - Related Links

Times and Time Zones

All times are in EDT time to prevent confusion due to time zone crossing. See the TAM3386 flight status page for this flight to view local times or setup timezone preferences in your user account.

Time Position Orientation Groundspeed Altitude Reporting Facility
EDT Latitude Longitude Course Direction KTS MPH feet Rate Location/Type
Wed 06:50:00 PM -19.4471 -46.8634 355° North  Level Estimated
Wed 06:51:00 PM -19.3226 -46.8754 355° North  Level Estimated
Wed 06:52:00 PM -19.1981 -46.8874 355° North  Level Estimated
Wed 06:53:00 PM -19.0735 -46.8993 355° North  Level Estimated
Wed 06:54:00 PM -18.9490 -46.9112 355° North  Level Estimated
Wed 06:55:00 PM -18.8244 -46.9231 355° North  Level Estimated
Wed 06:56:00 PM -18.6999 -46.9350 355° North  Level Estimated
Wed 06:57:00 PM -18.5753 -46.9469 355° North  Level Estimated
Wed 06:58:00 PM -18.4508 -46.9588 355° North  Level Estimated
Wed 06:59:00 PM -18.3262 -46.9706 355° North  Level Estimated
Wed 07:00:00 PM -18.2017 -46.9824 355° North  Level Estimated
Wed 07:01:00 PM -18.0771 -46.9942 355° North  Level Estimated
Wed 07:02:00 PM -17.9526 -47.0060 355° North  Level Estimated
Wed 07:03:00 PM -17.8280 -47.0178 355° North  Level Estimated
Wed 07:04:00 PM -17.7035 -47.0295 355° North  Level Estimated
Wed 07:05:00 PM -17.5789 -47.0413 355° North  Level Estimated
Wed 07:06:00 PM -17.4544 -47.0530 355° North  Level Estimated
Wed 07:07:00 PM -17.3298 -47.0647 355° North  Level Estimated
Wed 07:08:00 PM -17.2053 -47.0764 355° North  Level Estimated
Wed 07:09:00 PM -17.0807 -47.0880 355° North  Level Estimated
Wed 07:10:00 PM -16.9561 -47.0997 355° North  Level Estimated
Wed 07:11:00 PM -16.8316 -47.1113 355° North  Level Estimated
Wed 07:12:00 PM -16.7070 -47.1230 355° North  Level Estimated
Wed 07:13:00 PM -16.5825 -47.1346 355° North  Level Estimated
Wed 07:14:00 PM -16.4579 -47.1462 355° North  Level Estimated
Wed 07:15:00 PM -16.3333 -47.1578 355° North  Level Estimated
Wed 07:16:00 PM -16.2088 -47.1693 355° North  Level Estimated
Wed 07:17:00 PM -16.0842 -47.1809 355° North  Level Estimated
Wed 07:18:00 PM -15.9597 -47.1924 355° North  Level Estimated
Wed 07:19:00 PM -15.8351 -47.2039 355° North  Level Estimated
Wed 07:20:00 PM -15.7105 -47.2155 355° North  Level Estimated
Wed 07:21:00 PM -15.5860 -47.2270 355° North  Level Estimated
Wed 07:22:00 PM -15.4614 -47.2384 355° North  Level Estimated
Wed 07:23:00 PM -15.3369 -47.2499 355° North  Level Estimated
Wed 07:24:00 PM -15.2123 -47.2613 355° North  Level Estimated
Wed 07:25:00 PM -15.0877 -47.2728 355° North  Level Estimated
Wed 07:26:00 PM -14.9631 -47.2842 355° North  Level Estimated
Wed 07:27:00 PM -14.8386 -47.2956 355° North  Level Estimated
Wed 07:28:00 PM -14.7140 -47.3070 355° North  Level Estimated
Wed 07:29:00 PM -14.5894 -47.3184 355° North  Level Estimated
Wed 07:30:00 PM -14.4649 -47.3298 355° North  Level Estimated
Wed 07:31:00 PM -14.3403 -47.3411 355° North  Level Estimated
Wed 07:32:00 PM -14.2157 -47.3525 355° North  Level Estimated
Wed 07:33:00 PM -14.0912 -47.3638 355° North  Level Estimated
Wed 07:34:00 PM -13.9666 -47.3752 355° North  Level Estimated
Wed 07:35:00 PM -13.8420 -47.3865 355° North  Level Estimated
Wed 07:36:00 PM -13.7174 -47.3978 355° North  Level Estimated
Wed 07:37:00 PM -13.5929 -47.4091 355° North  Level Estimated
Wed 07:38:00 PM -13.4683 -47.4203 355° North  Level Estimated
Wed 07:39:00 PM -13.3437 -47.4316 355° North  Level Estimated
Wed 07:40:00 PM -13.2192 -47.4428 355° North  Level Estimated
Wed 07:41:00 PM -13.0946 -47.4541 355° North  Level Estimated
Wed 07:42:00 PM -12.9700 -47.4653 355° North  Level Estimated
Wed 07:43:00 PM -12.8454 -47.4765 355° North  Level Estimated
Wed 07:44:00 PM -12.7208 -47.4878 355° North  Level Estimated
Wed 07:45:00 PM -12.5963 -47.4990 355° North  Level Estimated
Wed 07:46:00 PM -12.4717 -47.5101 355° North  Level Estimated
Wed 07:47:00 PM -12.3471 -47.5213 355° North  Level Estimated
Wed 07:48:00 PM -12.2225 -47.5325 355° North  Level Estimated
Wed 07:49:00 PM -12.0979 -47.5436 355° North  Level Estimated
Wed 07:50:00 PM -11.9734 -47.5548 355° North  Level Estimated
Wed 07:51:00 PM -11.8488 -47.5659 355° North  Level Estimated
Wed 07:52:00 PM -11.7242 -47.5770 355° North  Level Estimated
Wed 07:53:00 PM -11.5996 -47.5881 355° North  Level Estimated
Wed 07:54:00 PM -11.4750 -47.5992 355° North  Level Estimated
Wed 07:55:00 PM -11.3505 -47.6103 355° North  Level Estimated
Wed 07:56:00 PM -11.2259 -47.6214 355° North  Level Estimated
Wed 07:57:00 PM -11.1013 -47.6325 355° North  Level Estimated
Wed 07:58:00 PM -10.9767 -47.6435 355° North  Level Estimated
Wed 07:59:00 PM -10.8521 -47.6546 355° North  Level Estimated
Wed 08:00:00 PM -10.7276 -47.6656 355° North  Level Estimated
Wed 08:01:00 PM -10.6030 -47.6767 355° North  Level Estimated
Wed 08:02:00 PM -10.4784 -47.6877 355° North  Level Estimated
Wed 08:03:00 PM -10.3538 -47.6987 355° North  Level Estimated
Wed 08:04:00 PM -10.2292 -47.7098 355° North  Level Estimated
Wed 08:05:00 PM -10.1047 -47.7207 355° North  Level Estimated
Wed 08:06:00 PM -9.9801 -47.7317 355° North  Level Estimated
Wed 08:07:00 PM -9.8555 -47.7427 355° North  Level Estimated
Wed 08:08:00 PM -9.7309 -47.7537 355° North  Level Estimated
Wed 08:09:00 PM -9.6063 -47.7647 355° North  Level Estimated
Wed 08:10:00 PM -9.4817 -47.7756 355° North  Level Estimated
Wed 08:11:00 PM -9.3571 -47.7866 355° North  Level Estimated
Wed 08:12:00 PM -9.2325 -47.7975 355° North  Level Estimated
Wed 08:13:00 PM -9.1079 -47.8085 355° North  Level Estimated
Wed 08:14:00 PM -8.9833 -47.8194 355° North  Level Estimated
Wed 08:15:00 PM -8.8588 -47.8303 355° North  Level Estimated
Wed 08:16:00 PM -8.7342 -47.8412 355° North  Level Estimated
Wed 08:17:00 PM -8.6096 -47.8521 355° North  Level Estimated
Wed 08:18:00 PM -8.4850 -47.8630 355° North  Level Estimated
Wed 08:19:00 PM -8.3604 -47.8739 355° North  Level Estimated
Wed 08:20:00 PM -8.2358 -47.8848 355° North  Level Estimated
Wed 08:21:00 PM -8.1112 -47.8957 355° North  Level Estimated
Wed 08:22:00 PM -7.9866 -47.9066 355° North  Level Estimated
Wed 08:23:00 PM -7.8620 -47.9174 355° North  Level Estimated
Wed 08:24:00 PM -7.7375 -47.9283 355° North  Level Estimated
Wed 08:25:00 PM -7.6129 -47.9392 355° North  Level Estimated
Wed 08:26:00 PM -7.4883 -47.9500 355° North  Level Estimated
Wed 08:27:00 PM -7.3637 -47.9608 355° North  Level Estimated
Wed 08:28:00 PM -7.2391 -47.9717 355° North  Level Estimated
Wed 08:29:00 PM -7.1145 -47.9825 355° North  Level Estimated
Wed 08:30:00 PM -6.9899 -47.9933 355° North  Level Estimated
Wed 08:31:00 PM -6.8653 -48.0041 355° North  Level Estimated
Wed 08:32:00 PM -6.7407 -48.0149 355° North  Level Estimated
Wed 08:33:00 PM -6.6161 -48.0258 355° North  Level Estimated
Wed 08:34:00 PM -6.4915 -48.0366 355° North  Level Estimated
Wed 08:35:00 PM -6.3670 -48.0474 355° North  Level Estimated
Wed 08:36:00 PM -6.2424 -48.0581 355° North  Level Estimated
Wed 08:37:00 PM -6.1178 -48.0689 355° North  Level Estimated
Wed 08:38:00 PM -5.9932 -48.0797 355° North  Level Estimated
Wed 08:39:00 PM -5.8686 -48.0905 355° North  Level Estimated
Wed 08:40:00 PM -5.7440 -48.1012 355° North  Level Estimated
Wed 08:41:00 PM -5.6194 -48.1120 355° North  Level Estimated
Wed 08:42:00 PM -5.4948 -48.1228 355° North  Level Estimated
Wed 08:43:00 PM -5.3702 -48.1335 355° North  Level Estimated
Wed 08:44:00 PM -5.2456 -48.1443 355° North  Level Estimated
Wed 08:45:00 PM -5.1210 -48.1550 355° North  Level Estimated
Wed 08:46:00 PM -4.9964 -48.1658 355° North  Level Estimated
Wed 08:47:00 PM -4.8718 -48.1765 355° North  Level Estimated
Wed 08:48:00 PM -4.7472 -48.1872 355° North  Level Estimated
Wed 08:49:00 PM -4.6226 -48.1980 355° North  Level Estimated
Wed 08:50:00 PM -4.4980 -48.2087 355° North  Level Estimated
Wed 08:51:00 PM -4.3734 -48.2194 355° North  Level Estimated
Wed 08:52:00 PM -4.2488 -48.2301 355° North  Level Estimated
Wed 08:53:00 PM -4.1242 -48.2409 355° North  Level Estimated
Wed 08:54:00 PM -3.9996 -48.2516 355° North  Level Estimated
Wed 08:55:00 PM -3.8750 -48.2623 355° North  Level Estimated
Wed 08:56:00 PM -3.7504 -48.2730 355° North  Level Estimated
Wed 08:57:00 PM -3.6258 -48.2837 355° North  Level Estimated
Wed 08:58:00 PM -3.5012 -48.2944 355° North  Level Estimated
Wed 08:59:00 PM -3.3766 -48.3051 355° North  Level Estimated
Wed 09:00:00 PM -3.2520 -48.3158 355° North  Level Estimated
Wed 09:01:00 PM -3.1274 -48.3265 355° North  Level Estimated
Wed 09:02:00 PM -3.0028 -48.3372 355° North  Level Estimated
Wed 09:03:00 PM -2.8782 -48.3479 355° North  Level Estimated
Wed 09:04:00 PM -2.7536 -48.3586 355° North  Level Estimated
Wed 09:05:00 PM -2.6290 -48.3692 355° North  Level Estimated
Wed 09:06:00 PM -2.5044 -48.3799 355° North  Level Estimated
Wed 09:07:00 PM -2.3798 -48.3906 355° North  Level Estimated
Wed 09:08:00 PM -2.2552 -48.4013 355° North  Level Estimated
Wed 09:09:00 PM -2.1306 -48.4119 355° North  Level Estimated
Wed 09:10:00 PM -2.0060 -48.4226 355° North  Level Estimated
Wed 09:11:00 PM -1.8814 -48.4333 355° North  Level Estimated
Wed 09:12:00 PM -1.7568 -48.4440 355° North  Level Estimated
Wed 09:13:00 PM -1.6322 -48.4546 355° North  Level Estimated
Wed 09:14:00 PM -1.5076 -48.4653 355° North  Level Estimated
Wed 09:15:00 PM -1.3830 -48.4760 355° North  Level Estimated
Wed 09:16:00 PM -1.3793 -48.4763 355° North  Level Estimated
Wed 09:17:00 PM -1.3793 -48.4763 270° West  Level Estimated
Wed 09:18:00 PM -1.3793 -48.4763 270° West  Level Estimated
Wed 09:19:00 PM -1.3793 -48.4763 270° West  Level Estimated
Wed 09:20:00 PM -1.3793 -48.4763 270° West  Level Estimated
Wed 09:21:00 PM -1.3793 -48.4763 270° West  Level Estimated
Wed 09:22:00 PM -1.3793 -48.4763 270° West  Level Estimated
Wed 09:23:00 PM -1.3793 -48.4763 270° West  Level Estimated
Wed 09:24:00 PM -1.3793 -48.4763 270° West  Level Estimated
Wed 09:25:00 PM -1.3793 -48.4763 270° West  Level Estimated
Wed 09:26:00 PM -1.3793 -48.4763 270° West  Level Estimated
Wed 09:27:00 PM -1.3793 -48.4763 270° West  Level Estimated
Wed 09:28:00 PM -1.3793 -48.4763 270° West  Level Estimated
Wed 09:29:00 PM -1.3793 -48.4763 270° West  Level Estimated
Wed 09:30:00 PM -1.3793 -48.4763 270° West  Level Estimated
Wed 09:31:00 PM -1.3793 -48.4763 270° West  Level Estimated

Login

Don't have an account? Register now (free) for customized features, flight alerts, and more!